sensor_id;sensor_type;location;lat;lon;timestamp;P1;durP1;ratioP1;P2;durP2;ratioP2
26135;SDS011;13889;50.806;4.608;2022-09-09T00:00:57;4.28;;;1.08;;
26135;SDS011;13889;50.806;4.608;2022-09-09T00:03:57;5.40;;;1.45;;
26135;SDS011;13889;50.806;4.608;2022-09-09T00:06:33;1.55;;;1.33;;
26135;SDS011;13889;50.806;4.608;2022-09-09T00:09:21;4.68;;;1.02;;
26135;SDS011;13889;50.806;4.608;2022-09-09T00:14:52;4.30;;;1.35;;
26135;SDS011;13889;50.806;4.608;2022-09-09T00:20:01;2.47;;;1.30;;
26135;SDS011;13889;50.806;4.608;2022-09-09T00:22:36;1.95;;;1.02;;
26135;SDS011;13889;50.806;4.608;2022-09-09T00:25:12;1.58;;;0.80;;
26135;SDS011;13889;50.806;4.608;2022-09-09T00:27:49;3.72;;;1.20;;
26135;SDS011;13889;50.806;4.608;2022-09-09T00:32:45;1.90;;;1.02;;
26135;SDS011;13889;50.806;4.608;2022-09-09T00:35:22;1.35;;;1.00;;
26135;SDS011;13889;50.806;4.608;2022-09-09T00:37:52;4.80;;;1.00;;
26135;SDS011;13889;50.806;4.608;2022-09-09T00:43:01;4.10;;;0.98;;
26135;SDS011;13889;50.806;4.608;2022-09-09T00:48:16;2.30;;;1.08;;
26135;SDS011;13889;50.806;4.608;2022-09-09T00:50:53;2.20;;;1.00;;
26135;SDS011;13889;50.806;4.608;2022-09-09T00:53:30;1.42;;;1.13;;
26135;SDS011;13889;50.806;4.608;2022-09-09T00:56:22;5.07;;;1.30;;
26135;SDS011;13889;50.806;4.608;2022-09-09T00:59:36;4.00;;;0.95;;
26135;SDS011;13889;50.806;4.608;2022-09-09T01:02:06;2.95;;;0.88;;
26135;SDS011;13889;50.806;4.608;2022-09-09T01:04:42;1.38;;;0.80;;
26135;SDS011;13889;50.806;4.608;2022-09-09T01:07:19;2.13;;;0.90;;
26135;SDS011;13889;50.806;4.608;2022-09-09T01:12:28;2.08;;;1.10;;
26135;SDS011;13889;50.806;4.608;2022-09-09T01:17:41;3.20;;;1.30;;
26135;SDS011;13889;50.806;4.608;2022-09-09T01:20:24;2.65;;;1.13;;
26135;SDS011;13889;50.806;4.608;2022-09-09T01:23:03;3.00;;;1.10;;
26135;SDS011;13889;50.806;4.608;2022-09-09T01:28:55;2.88;;;1.27;;
26135;SDS011;13889;50.806;4.608;2022-09-09T01:31:28;1.73;;;1.08;;
26135;SDS011;13889;50.806;4.608;2022-09-09T01:34:01;2.20;;;1.33;;
26135;SDS011;13889;50.806;4.608;2022-09-09T01:36:38;1.80;;;1.30;;
26135;SDS011;13889;50.806;4.608;2022-09-09T01:39:33;5.93;;;1.40;;
26135;SDS011;13889;50.806;4.608;2022-09-09T01:42:00;4.80;;;1.45;;
26135;SDS011;13889;50.806;4.608;2022-09-09T01:44:26;2.42;;;1.30;;
26135;SDS011;13889;50.806;4.608;2022-09-09T01:46:53;2.72;;;1.52;;
26135;SDS011;13889;50.806;4.608;2022-09-09T01:49:19;2.83;;;1.30;;
26135;SDS011;13889;50.806;4.608;2022-09-09T01:51:46;2.35;;;0.93;;
26135;SDS011;13889;50.806;4.608;2022-09-09T01:54:18;5.80;;;1.52;;
26135;SDS011;13889;50.806;4.608;2022-09-09T02:02:35;1.63;;;1.23;;
26135;SDS011;13889;50.806;4.608;2022-09-09T02:05:15;5.10;;;1.42;;
26135;SDS011;13889;50.806;4.608;2022-09-09T02:08:09;4.60;;;1.30;;
26135;SDS011;13889;50.806;4.608;2022-09-09T02:13:24;5.78;;;1.25;;
26135;SDS011;13889;50.806;4.608;2022-09-09T02:18:35;3.78;;;1.70;;
26135;SDS011;13889;50.806;4.608;2022-09-09T02:21:30;3.65;;;1.55;;
26135;SDS011;13889;50.806;4.608;2022-09-09T02:23:57;3.42;;;1.35;;
26135;SDS011;13889;50.806;4.608;2022-09-09T02:26:29;2.85;;;1.27;;
26135;SDS011;13889;50.806;4.608;2022-09-09T02:28:59;2.38;;;1.30;;
26135;SDS011;13889;50.806;4.608;2022-09-09T02:31:28;2.92;;;1.58;;
26135;SDS011;13889;50.806;4.608;2022-09-09T02:33:55;4.78;;;1.60;;
26135;SDS011;13889;50.806;4.608;2022-09-09T02:36:25;4.60;;;1.33;;
26135;SDS011;13889;50.806;4.608;2022-09-09T02:38:54;1.70;;;1.52;;
26135;SDS011;13889;50.806;4.608;2022-09-09T02:41:25;5.78;;;1.70;;
26135;SDS011;13889;50.806;4.608;2022-09-09T02:43:56;7.63;;;1.83;;
26135;SDS011;13889;50.806;4.608;2022-09-09T02:49:00;6.63;;;1.67;;
26135;SDS011;13889;50.806;4.608;2022-09-09T02:56:52;5.28;;;1.92;;
26135;SDS011;13889;50.806;4.608;2022-09-09T02:59:19;5.13;;;1.60;;
26135;SDS011;13889;50.806;4.608;2022-09-09T03:01:46;7.57;;;1.20;;
26135;SDS011;13889;50.806;4.608;2022-09-09T03:04:12;3.70;;;1.35;;
26135;SDS011;13889;50.806;4.608;2022-09-09T03:06:38;3.58;;;1.60;;
26135;SDS011;13889;50.806;4.608;2022-09-09T03:09:04;4.00;;;1.10;;
26135;SDS011;13889;50.806;4.608;2022-09-09T03:11:30;5.22;;;1.38;;
26135;SDS011;13889;50.806;4.608;2022-09-09T03:13:55;1.90;;;1.13;;
26135;SDS011;13889;50.806;4.608;2022-09-09T03:16:22;1.92;;;1.05;;
26135;SDS011;13889;50.806;4.608;2022-09-09T03:18:48;5.30;;;1.50;;
26135;SDS011;13889;50.806;4.608;2022-09-09T03:21:14;4.05;;;1.50;;
26135;SDS011;13889;50.806;4.608;2022-09-09T03:23:40;7.88;;;1.50;;
26135;SDS011;13889;50.806;4.608;2022-09-09T03:26:06;4.38;;;1.75;;
26135;SDS011;13889;50.806;4.608;2022-09-09T03:28:32;7.55;;;2.20;;
26135;SDS011;13889;50.806;4.608;2022-09-09T03:30:59;5.28;;;1.63;;
26135;SDS011;13889;50.806;4.608;2022-09-09T03:33:25;8.38;;;1.90;;
26135;SDS011;13889;50.806;4.608;2022-09-09T03:35:52;7.85;;;1.77;;
26135;SDS011;13889;50.806;4.608;2022-09-09T03:38:18;5.05;;;1.60;;
26135;SDS011;13889;50.806;4.608;2022-09-09T03:40:50;2.72;;;1.70;;
26135;SDS011;13889;50.806;4.608;2022-09-09T03:43:20;3.53;;;1.42;;
26135;SDS011;13889;50.806;4.608;2022-09-09T03:45:50;5.93;;;2.10;;
26135;SDS011;13889;50.806;4.608;2022-09-09T03:48:16;3.35;;;1.50;;
26135;SDS011;13889;50.806;4.608;2022-09-09T03:50:49;4.90;;;2.03;;
26135;SDS011;13889;50.806;4.608;2022-09-09T03:53:17;4.30;;;1.58;;
26135;SDS011;13889;50.806;4.608;2022-09-09T03:55:47;7.40;;;2.08;;
26135;SDS011;13889;50.806;4.608;2022-09-09T03:58:17;5.18;;;1.80;;
26135;SDS011;13889;50.806;4.608;2022-09-09T04:00:44;5.05;;;1.92;;
26135;SDS011;13889;50.806;4.608;2022-09-09T04:03:43;9.35;;;2.58;;
26135;SDS011;13889;50.806;4.608;2022-09-09T04:06:10;4.53;;;1.67;;
26135;SDS011;13889;50.806;4.608;2022-09-09T04:08:38;6.55;;;2.05;;
26135;SDS011;13889;50.806;4.608;2022-09-09T04:11:05;6.57;;;1.95;;
26135;SDS011;13889;50.806;4.608;2022-09-09T04:13:35;8.20;;;2.00;;
26135;SDS011;13889;50.806;4.608;2022-09-09T04:16:05;5.30;;;1.80;;
26135;SDS011;13889;50.806;4.608;2022-09-09T04:18:32;4.88;;;1.95;;
26135;SDS011;13889;50.806;4.608;2022-09-09T04:20:59;5.10;;;2.38;;
26135;SDS011;13889;50.806;4.608;2022-09-09T04:23:25;7.00;;;1.90;;
26135;SDS011;13889;50.806;4.608;2022-09-09T04:25:55;6.90;;;1.80;;
26135;SDS011;13889;50.806;4.608;2022-09-09T04:28:23;5.60;;;1.88;;
26135;SDS011;13889;50.806;4.608;2022-09-09T04:30:50;4.25;;;1.77;;
26135;SDS011;13889;50.806;4.608;2022-09-09T04:33:16;11.10;;;2.20;;
26135;SDS011;13889;50.806;4.608;2022-09-09T04:35:45;5.20;;;1.75;;
26135;SDS011;13889;50.806;4.608;2022-09-09T04:38:13;4.78;;;1.90;;
26135;SDS011;13889;50.806;4.608;2022-09-09T04:40:38;7.65;;;1.88;;
26135;SDS011;13889;50.806;4.608;2022-09-09T04:43:08;6.38;;;1.83;;
26135;SDS011;13889;50.806;4.608;2022-09-09T04:45:34;5.72;;;2.20;;
26135;SDS011;13889;50.806;4.608;2022-09-09T04:48:00;7.32;;;1.90;;
26135;SDS011;13889;50.806;4.608;2022-09-09T04:50:27;5.32;;;2.08;;
26135;SDS011;13889;50.806;4.608;2022-09-09T04:52:53;10.27;;;2.80;;
26135;SDS011;13889;50.806;4.608;2022-09-09T04:55:19;9.98;;;2.30;;
26135;SDS011;13889;50.806;4.608;2022-09-09T04:57:45;7.68;;;2.40;;
26135;SDS011;13889;50.806;4.608;2022-09-09T05:00:10;8.38;;;2.17;;
26135;SDS011;13889;50.806;4.608;2022-09-09T05:02:38;8.43;;;2.40;;
26135;SDS011;13889;50.806;4.608;2022-09-09T05:05:05;8.40;;;2.00;;
26135;SDS011;13889;50.806;4.608;2022-09-09T05:07:31;7.60;;;2.47;;
26135;SDS011;13889;50.806;4.608;2022-09-09T05:09:57;7.70;;;2.53;;
26135;SDS011;13889;50.806;4.608;2022-09-09T05:12:23;12.63;;;2.92;;
26135;SDS011;13889;50.806;4.608;2022-09-09T05:14:51;9.90;;;2.97;;
26135;SDS011;13889;50.806;4.608;2022-09-09T05:17:17;8.75;;;2.78;;
26135;SDS011;13889;50.806;4.608;2022-09-09T05:19:43;7.15;;;2.53;;
26135;SDS011;13889;50.806;4.608;2022-09-09T05:22:09;11.27;;;2.47;;
26135;SDS011;13889;50.806;4.608;2022-09-09T05:24:36;7.85;;;2.60;;
26135;SDS011;13889;50.806;4.608;2022-09-09T05:27:03;7.95;;;2.33;;
26135;SDS011;13889;50.806;4.608;2022-09-09T05:29:31;7.20;;;2.20;;
26135;SDS011;13889;50.806;4.608;2022-09-09T05:32:11;6.30;;;2.50;;
26135;SDS011;13889;50.806;4.608;2022-09-09T05:34:40;8.32;;;2.55;;
26135;SDS011;13889;50.806;4.608;2022-09-09T05:37:05;9.25;;;2.72;;
26135;SDS011;13889;50.806;4.608;2022-09-09T05:39:32;11.65;;;2.55;;
26135;SDS011;13889;50.806;4.608;2022-09-09T05:41:58;5.45;;;2.20;;
26135;SDS011;13889;50.806;4.608;2022-09-09T05:44:24;8.30;;;2.63;;
26135;SDS011;13889;50.806;4.608;2022-09-09T05:46:52;8.43;;;1.95;;
26135;SDS011;13889;50.806;4.608;2022-09-09T05:49:19;6.38;;;2.70;;
26135;SDS011;13889;50.806;4.608;2022-09-09T05:51:45;6.72;;;2.63;;
26135;SDS011;13889;50.806;4.608;2022-09-09T05:54:12;8.57;;;1.92;;
26135;SDS011;13889;50.806;4.608;2022-09-09T05:56:40;8.07;;;1.88;;
26135;SDS011;13889;50.806;4.608;2022-09-09T05:59:06;7.95;;;2.10;;
26135;SDS011;13889;50.806;4.608;2022-09-09T06:01:32;6.78;;;2.20;;
26135;SDS011;13889;50.806;4.608;2022-09-09T06:03:59;7.55;;;1.98;;
26135;SDS011;13889;50.806;4.608;2022-09-09T06:06:26;6.30;;;2.08;;
26135;SDS011;13889;50.806;4.608;2022-09-09T06:08:55;10.90;;;2.42;;
26135;SDS011;13889;50.806;4.608;2022-09-09T06:11:26;6.75;;;2.20;;
26135;SDS011;13889;50.806;4.608;2022-09-09T06:13:55;8.32;;;2.65;;
26135;SDS011;13889;50.806;4.608;2022-09-09T06:16:22;6.18;;;2.25;;
26135;SDS011;13889;50.806;4.608;2022-09-09T06:18:49;7.25;;;2.20;;
26135;SDS011;13889;50.806;4.608;2022-09-09T06:24:09;10.63;;;2.80;;
26135;SDS011;13889;50.806;4.608;2022-09-09T06:26:38;12.48;;;2.22;;
26135;SDS011;13889;50.806;4.608;2022-09-09T06:29:07;6.72;;;2.15;;
26135;SDS011;13889;50.806;4.608;2022-09-09T06:31:34;8.13;;;2.00;;
26135;SDS011;13889;50.806;4.608;2022-09-09T06:34:02;11.20;;;2.35;;
26135;SDS011;13889;50.806;4.608;2022-09-09T06:36:31;9.00;;;2.20;;
26135;SDS011;13889;50.806;4.608;2022-09-09T06:38:58;4.85;;;1.77;;
26135;SDS011;13889;50.806;4.608;2022-09-09T06:41:25;10.88;;;2.30;;
26135;SDS011;13889;50.806;4.608;2022-09-09T06:43:52;6.50;;;2.78;;
26135;SDS011;13889;50.806;4.608;2022-09-09T06:46:19;11.52;;;2.30;;
26135;SDS011;13889;50.806;4.608;2022-09-09T06:48:46;11.98;;;2.42;;
26135;SDS011;13889;50.806;4.608;2022-09-09T06:51:19;7.78;;;2.20;;
26135;SDS011;13889;50.806;4.608;2022-09-09T06:53:47;10.00;;;2.28;;
26135;SDS011;13889;50.806;4.608;2022-09-09T06:58:41;5.65;;;1.70;;
26135;SDS011;13889;50.806;4.608;2022-09-09T07:01:09;6.72;;;2.30;;
26135;SDS011;13889;50.806;4.608;2022-09-09T07:03:40;7.50;;;2.00;;
26135;SDS011;13889;50.806;4.608;2022-09-09T07:06:07;10.10;;;2.47;;
26135;SDS011;13889;50.806;4.608;2022-09-09T07:08:38;5.30;;;1.83;;
26135;SDS011;13889;50.806;4.608;2022-09-09T07:11:05;8.80;;;2.25;;
26135;SDS011;13889;50.806;4.608;2022-09-09T07:13:32;7.18;;;1.90;;
26135;SDS011;13889;50.806;4.608;2022-09-09T07:16:08;6.05;;;1.95;;
26135;SDS011;13889;50.806;4.608;2022-09-09T07:18:35;7.32;;;2.00;;
26135;SDS011;13889;50.806;4.608;2022-09-09T07:21:02;9.20;;;2.17;;
26135;SDS011;13889;50.806;4.608;2022-09-09T07:23:28;7.30;;;2.10;;
26135;SDS011;13889;50.806;4.608;2022-09-09T07:25:55;7.70;;;2.30;;
26135;SDS011;13889;50.806;4.608;2022-09-09T07:28:22;7.75;;;2.10;;
26135;SDS011;13889;50.806;4.608;2022-09-09T07:30:55;8.10;;;1.80;;
26135;SDS011;13889;50.806;4.608;2022-09-09T07:33:26;7.57;;;2.85;;
26135;SDS011;13889;50.806;4.608;2022-09-09T07:35:53;5.43;;;1.55;;
26135;SDS011;13889;50.806;4.608;2022-09-09T07:38:19;10.07;;;2.33;;
26135;SDS011;13889;50.806;4.608;2022-09-09T07:40:46;7.25;;;2.55;;
26135;SDS011;13889;50.806;4.608;2022-09-09T07:43:12;8.23;;;2.40;;
26135;SDS011;13889;50.806;4.608;2022-09-09T07:45:37;5.68;;;2.03;;
26135;SDS011;13889;50.806;4.608;2022-09-09T07:48:03;6.68;;;2.30;;
26135;SDS011;13889;50.806;4.608;2022-09-09T07:50:30;7.10;;;2.05;;
26135;SDS011;13889;50.806;4.608;2022-09-09T07:52:56;9.23;;;2.13;;
26135;SDS011;13889;50.806;4.608;2022-09-09T07:55:22;8.25;;;1.73;;
26135;SDS011;13889;50.806;4.608;2022-09-09T07:57:52;6.13;;;1.88;;
26135;SDS011;13889;50.806;4.608;2022-09-09T08:00:19;7.43;;;2.00;;
26135;SDS011;13889;50.806;4.608;2022-09-09T08:02:47;9.02;;;1.98;;
26135;SDS011;13889;50.806;4.608;2022-09-09T08:05:13;4.38;;;1.70;;
26135;SDS011;13889;50.806;4.608;2022-09-09T08:07:40;5.40;;;1.60;;
26135;SDS011;13889;50.806;4.608;2022-09-09T08:10:05;7.63;;;2.15;;
26135;SDS011;13889;50.806;4.608;2022-09-09T08:12:31;6.55;;;1.90;;
26135;SDS011;13889;50.806;4.608;2022-09-09T08:14:57;8.75;;;1.83;;
26135;SDS011;13889;50.806;4.608;2022-09-09T08:17:23;10.35;;;2.35;;
26135;SDS011;13889;50.806;4.608;2022-09-09T08:19:49;7.40;;;1.88;;
26135;SDS011;13889;50.806;4.608;2022-09-09T08:22:14;5.85;;;1.63;;
26135;SDS011;13889;50.806;4.608;2022-09-09T08:24:40;8.48;;;2.17;;
26135;SDS011;13889;50.806;4.608;2022-09-09T08:27:06;7.28;;;1.60;;
26135;SDS011;13889;50.806;4.608;2022-09-09T08:29:32;7.18;;;1.67;;
26135;SDS011;13889;50.806;4.608;2022-09-09T08:31:58;8.30;;;2.22;;
26135;SDS011;13889;50.806;4.608;2022-09-09T08:34:25;7.82;;;2.28;;
26135;SDS011;13889;50.806;4.608;2022-09-09T08:36:51;4.85;;;2.00;;
26135;SDS011;13889;50.806;4.608;2022-09-09T08:39:19;5.93;;;1.55;;
26135;SDS011;13889;50.806;4.608;2022-09-09T08:50:05;7.47;;;2.05;;
26135;SDS011;13889;50.806;4.608;2022-09-09T08:55:28;7.45;;;2.05;;
26135;SDS011;13889;50.806;4.608;2022-09-09T09:11:34;4.70;;;2.03;;
26135;SDS011;13889;50.806;4.608;2022-09-09T09:14:09;8.57;;;2.22;;
26135;SDS011;13889;50.806;4.608;2022-09-09T09:16:48;6.60;;;2.15;;
26135;SDS011;13889;50.806;4.608;2022-09-09T09:19:19;7.78;;;1.90;;
26135;SDS011;13889;50.806;4.608;2022-09-09T09:29:59;7.50;;;2.67;;
26135;SDS011;13889;50.806;4.608;2022-09-09T09:32:31;5.88;;;2.17;;
26135;SDS011;13889;50.806;4.608;2022-09-09T09:34:59;5.82;;;1.73;;
26135;SDS011;13889;50.806;4.608;2022-09-09T09:37:31;7.93;;;2.03;;
26135;SDS011;13889;50.806;4.608;2022-09-09T09:40:16;6.53;;;2.25;;
26135;SDS011;13889;50.806;4.608;2022-09-09T09:42:51;7.00;;;2.38;;
26135;SDS011;13889;50.806;4.608;2022-09-09T09:45:35;4.82;;;1.90;;
26135;SDS011;13889;50.806;4.608;2022-09-09T09:48:10;7.78;;;2.15;;
26135;SDS011;13889;50.806;4.608;2022-09-09T09:55:54;5.20;;;1.95;;
26135;SDS011;13889;50.806;4.608;2022-09-09T09:58:29;9.38;;;2.22;;
26135;SDS011;13889;50.806;4.608;2022-09-09T10:00:58;6.15;;;2.15;;
26135;SDS011;13889;50.806;4.608;2022-09-09T10:03:26;5.70;;;2.20;;
26135;SDS011;13889;50.806;4.608;2022-09-09T10:05:54;8.27;;;2.30;;
26135;SDS011;13889;50.806;4.608;2022-09-09T10:08:21;8.88;;;2.35;;
26135;SDS011;13889;50.806;4.608;2022-09-09T10:16:25;6.55;;;2.03;;
26135;SDS011;13889;50.806;4.608;2022-09-09T10:19:04;6.20;;;2.30;;
26135;SDS011;13889;50.806;4.608;2022-09-09T10:35:33;6.40;;;2.03;;
26135;SDS011;13889;50.806;4.608;2022-09-09T10:38:12;10.20;;;2.50;;
26135;SDS011;13889;50.806;4.608;2022-09-09T10:56:54;6.82;;;2.25;;
26135;SDS011;13889;50.806;4.608;2022-09-09T10:59:28;6.38;;;2.15;;
26135;SDS011;13889;50.806;4.608;2022-09-09T11:02:21;10.20;;;2.45;;
26135;SDS011;13889;50.806;4.608;2022-09-09T11:04:54;7.43;;;2.47;;
26135;SDS011;13889;50.806;4.608;2022-09-09T11:07:35;7.90;;;2.40;;
26135;SDS011;13889;50.806;4.608;2022-09-09T11:10:13;8.63;;;2.30;;
26135;SDS011;13889;50.806;4.608;2022-09-09T11:13:00;5.28;;;2.00;;
26135;SDS011;13889;50.806;4.608;2022-09-09T11:15:35;8.10;;;2.20;;
26135;SDS011;13889;50.806;4.608;2022-09-09T11:18:06;6.75;;;2.28;;
26135;SDS011;13889;50.806;4.608;2022-09-09T11:20:42;6.65;;;2.20;;
26135;SDS011;13889;50.806;4.608;2022-09-09T11:23:20;8.07;;;2.00;;
26135;SDS011;13889;50.806;4.608;2022-09-09T11:25:57;7.20;;;1.88;;
26135;SDS011;13889;50.806;4.608;2022-09-09T11:31:57;5.35;;;1.73;;
26135;SDS011;13889;50.806;4.608;2022-09-09T11:34:33;7.22;;;1.70;;
26135;SDS011;13889;50.806;4.608;2022-09-09T11:38:07;5.50;;;1.65;;
26135;SDS011;13889;50.806;4.608;2022-09-09T11:42:47;7.82;;;1.92;;
26135;SDS011;13889;50.806;4.608;2022-09-09T11:45:23;3.88;;;1.70;;
26135;SDS011;13889;50.806;4.608;2022-09-09T11:47:52;5.88;;;1.88;;
26135;SDS011;13889;50.806;4.608;2022-09-09T11:52:45;6.18;;;1.80;;
26135;SDS011;13889;50.806;4.608;2022-09-09T11:55:25;6.35;;;1.77;;
26135;SDS011;13889;50.806;4.608;2022-09-09T11:58:01;5.57;;;1.70;;
26135;SDS011;13889;50.806;4.608;2022-09-09T12:00:40;3.90;;;1.42;;
26135;SDS011;13889;50.806;4.608;2022-09-09T12:08:50;3.67;;;1.40;;
26135;SDS011;13889;50.806;4.608;2022-09-09T12:11:26;7.18;;;2.03;;
26135;SDS011;13889;50.806;4.608;2022-09-09T12:13:54;6.85;;;1.77;;
26135;SDS011;13889;50.806;4.608;2022-09-09T12:16:35;5.40;;;1.52;;
26135;SDS011;13889;50.806;4.608;2022-09-09T12:19:24;4.45;;;1.70;;
26135;SDS011;13889;50.806;4.608;2022-09-09T12:22:04;3.55;;;1.48;;
26135;SDS011;13889;50.806;4.608;2022-09-09T12:24:43;4.50;;;1.70;;
26135;SDS011;13889;50.806;4.608;2022-09-09T12:27:26;8.93;;;1.55;;
26135;SDS011;13889;50.806;4.608;2022-09-09T12:32:42;4.85;;;1.67;;
26135;SDS011;13889;50.806;4.608;2022-09-09T12:38:29;4.03;;;1.85;;
26135;SDS011;13889;50.806;4.608;2022-09-09T12:40:59;3.40;;;1.50;;
26135;SDS011;13889;50.806;4.608;2022-09-09T12:43:26;4.57;;;2.47;;
26135;SDS011;13889;50.806;4.608;2022-09-09T12:45:54;6.13;;;2.03;;
26135;SDS011;13889;50.806;4.608;2022-09-09T12:48:27;4.55;;;2.03;;
26135;SDS011;13889;50.806;4.608;2022-09-09T12:51:15;5.63;;;1.73;;
26135;SDS011;13889;50.806;4.608;2022-09-09T12:53:44;4.45;;;1.88;;
26135;SDS011;13889;50.806;4.608;2022-09-09T12:56:18;7.20;;;1.98;;
26135;SDS011;13889;50.806;4.608;2022-09-09T12:58:46;8.00;;;3.00;;
26135;SDS011;13889;50.806;4.608;2022-09-09T13:01:27;4.07;;;1.90;;
26135;SDS011;13889;50.806;4.608;2022-09-09T13:03:58;3.50;;;1.45;;
26135;SDS011;13889;50.806;4.608;2022-09-09T13:06:28;4.43;;;1.80;;
26135;SDS011;13889;50.806;4.608;2022-09-09T13:08:55;5.35;;;1.50;;
26135;SDS011;13889;50.806;4.608;2022-09-09T13:14:01;6.03;;;1.73;;
26135;SDS011;13889;50.806;4.608;2022-09-09T13:16:29;4.50;;;1.35;;
26135;SDS011;13889;50.806;4.608;2022-09-09T13:18:57;2.42;;;1.48;;
26135;SDS011;13889;50.806;4.608;2022-09-09T13:21:34;4.97;;;1.52;;
26135;SDS011;13889;50.806;4.608;2022-09-09T13:24:03;2.60;;;1.20;;
26135;SDS011;13889;50.806;4.608;2022-09-09T13:26:33;4.75;;;1.30;;
26135;SDS011;13889;50.806;4.608;2022-09-09T13:29:16;4.18;;;1.33;;
26135;SDS011;13889;50.806;4.608;2022-09-09T13:31:43;2.30;;;1.13;;
26135;SDS011;13889;50.806;4.608;2022-09-09T13:37:01;3.13;;;1.30;;
26135;SDS011;13889;50.806;4.608;2022-09-09T13:39:34;3.80;;;1.20;;
26135;SDS011;13889;50.806;4.608;2022-09-09T13:42:02;3.63;;;1.38;;
26135;SDS011;13889;50.806;4.608;2022-09-09T13:44:33;3.20;;;1.40;;
26135;SDS011;13889;50.806;4.608;2022-09-09T13:47:15;2.20;;;1.17;;
26135;SDS011;13889;50.806;4.608;2022-09-09T13:49:48;3.67;;;1.77;;
26135;SDS011;13889;50.806;4.608;2022-09-09T13:52:17;4.13;;;1.10;;
26135;SDS011;13889;50.806;4.608;2022-09-09T13:54:47;3.25;;;1.45;;
26135;SDS011;13889;50.806;4.608;2022-09-09T13:57:15;8.25;;;1.50;;
26135;SDS011;13889;50.806;4.608;2022-09-09T13:59:43;2.92;;;1.02;;
26135;SDS011;13889;50.806;4.608;2022-09-09T14:02:10;2.50;;;1.02;;
26135;SDS011;13889;50.806;4.608;2022-09-09T14:04:36;4.10;;;1.40;;
26135;SDS011;13889;50.806;4.608;2022-09-09T14:07:01;2.72;;;1.13;;
26135;SDS011;13889;50.806;4.608;2022-09-09T14:09:28;3.17;;;1.00;;
26135;SDS011;13889;50.806;4.608;2022-09-09T14:11:53;5.22;;;0.98;;
26135;SDS011;13889;50.806;4.608;2022-09-09T14:14:20;2.05;;;1.13;;
26135;SDS011;13889;50.806;4.608;2022-09-09T14:16:46;2.92;;;1.20;;
26135;SDS011;13889;50.806;4.608;2022-09-09T14:19:12;3.13;;;1.45;;
26135;SDS011;13889;50.806;4.608;2022-09-09T14:21:37;3.97;;;1.38;;
26135;SDS011;13889;50.806;4.608;2022-09-09T14:24:03;2.33;;;1.08;;
26135;SDS011;13889;50.806;4.608;2022-09-09T14:26:29;2.42;;;1.48;;
26135;SDS011;13889;50.806;4.608;2022-09-09T14:28:55;2.22;;;1.27;;
26135;SDS011;13889;50.806;4.608;2022-09-09T14:31:21;1.98;;;1.30;;
26135;SDS011;13889;50.806;4.608;2022-09-09T14:33:48;3.08;;;1.15;;
26135;SDS011;13889;50.806;4.608;2022-09-09T14:36:13;3.45;;;1.45;;
26135;SDS011;13889;50.806;4.608;2022-09-09T14:38:40;4.32;;;1.55;;
26135;SDS011;13889;50.806;4.608;2022-09-09T14:41:07;4.18;;;1.40;;
26135;SDS011;13889;50.806;4.608;2022-09-09T14:43:43;2.50;;;1.33;;
26135;SDS011;13889;50.806;4.608;2022-09-09T14:46:11;6.20;;;1.73;;
26135;SDS011;13889;50.806;4.608;2022-09-09T14:48:38;2.13;;;1.30;;
26135;SDS011;13889;50.806;4.608;2022-09-09T14:51:12;4.03;;;1.58;;
26135;SDS011;13889;50.806;4.608;2022-09-09T14:53:52;3.03;;;1.52;;
26135;SDS011;13889;50.806;4.608;2022-09-09T14:56:20;3.47;;;1.60;;
26135;SDS011;13889;50.806;4.608;2022-09-09T14:58:48;3.22;;;1.80;;
26135;SDS011;13889;50.806;4.608;2022-09-09T15:01:15;4.72;;;1.50;;
26135;SDS011;13889;50.806;4.608;2022-09-09T15:03:43;4.03;;;1.60;;
26135;SDS011;13889;50.806;4.608;2022-09-09T15:06:15;3.75;;;1.48;;
26135;SDS011;13889;50.806;4.608;2022-09-09T15:08:42;4.80;;;1.90;;
26135;SDS011;13889;50.806;4.608;2022-09-09T15:11:10;4.00;;;1.38;;
26135;SDS011;13889;50.806;4.608;2022-09-09T15:13:37;3.60;;;1.30;;
26135;SDS011;13889;50.806;4.608;2022-09-09T15:16:05;6.07;;;1.73;;
26135;SDS011;13889;50.806;4.608;2022-09-09T15:18:32;4.43;;;1.30;;
26135;SDS011;13889;50.806;4.608;2022-09-09T15:20:59;3.47;;;1.42;;
26135;SDS011;13889;50.806;4.608;2022-09-09T15:23:26;3.13;;;1.63;;
26135;SDS011;13889;50.806;4.608;2022-09-09T15:25:55;3.83;;;1.20;;
26135;SDS011;13889;50.806;4.608;2022-09-09T15:28:22;5.53;;;1.65;;
26135;SDS011;13889;50.806;4.608;2022-09-09T15:30:51;6.70;;;1.73;;
26135;SDS011;13889;50.806;4.608;2022-09-09T15:33:18;6.07;;;2.00;;
26135;SDS011;13889;50.806;4.608;2022-09-09T15:35:45;6.05;;;1.85;;
26135;SDS011;13889;50.806;4.608;2022-09-09T15:38:11;2.70;;;1.20;;
26135;SDS011;13889;50.806;4.608;2022-09-09T15:40:41;4.88;;;1.70;;
26135;SDS011;13889;50.806;4.608;2022-09-09T15:43:07;4.03;;;1.45;;
26135;SDS011;13889;50.806;4.608;2022-09-09T15:45:35;4.85;;;1.10;;
26135;SDS011;13889;50.806;4.608;2022-09-09T15:48:02;3.47;;;1.30;;
26135;SDS011;13889;50.806;4.608;2022-09-09T15:50:29;4.68;;;1.58;;
26135;SDS011;13889;50.806;4.608;2022-09-09T15:52:58;2.78;;;1.30;;
26135;SDS011;13889;50.806;4.608;2022-09-09T15:55:24;3.28;;;1.50;;
26135;SDS011;13889;50.806;4.608;2022-09-09T15:57:50;4.53;;;1.30;;
26135;SDS011;13889;50.806;4.608;2022-09-09T16:00:17;4.68;;;1.45;;
26135;SDS011;13889;50.806;4.608;2022-09-09T16:02:44;4.43;;;1.65;;
26135;SDS011;13889;50.806;4.608;2022-09-09T16:05:12;3.40;;;1.25;;
26135;SDS011;13889;50.806;4.608;2022-09-09T16:07:37;4.18;;;1.40;;
26135;SDS011;13889;50.806;4.608;2022-09-09T16:10:03;5.13;;;1.35;;
26135;SDS011;13889;50.806;4.608;2022-09-09T16:12:29;5.00;;;1.50;;
26135;SDS011;13889;50.806;4.608;2022-09-09T16:14:54;2.97;;;1.38;;
26135;SDS011;13889;50.806;4.608;2022-09-09T16:17:20;6.32;;;1.30;;
26135;SDS011;13889;50.806;4.608;2022-09-09T16:19:46;7.00;;;1.48;;
26135;SDS011;13889;50.806;4.608;2022-09-09T16:22:12;3.70;;;1.23;;
26135;SDS011;13889;50.806;4.608;2022-09-09T16:24:40;2.42;;;1.20;;
26135;SDS011;13889;50.806;4.608;2022-09-09T16:27:06;3.22;;;1.38;;
26135;SDS011;13889;50.806;4.608;2022-09-09T16:29:32;5.80;;;1.40;;
26135;SDS011;13889;50.806;4.608;2022-09-09T16:31:58;3.30;;;1.58;;
26135;SDS011;13889;50.806;4.608;2022-09-09T16:34:25;2.97;;;1.52;;
26135;SDS011;13889;50.806;4.608;2022-09-09T16:36:50;3.80;;;1.52;;
26135;SDS011;13889;50.806;4.608;2022-09-09T16:39:19;4.10;;;1.45;;
26135;SDS011;13889;50.806;4.608;2022-09-09T16:41:46;2.72;;;1.30;;
26135;SDS011;13889;50.806;4.608;2022-09-09T16:44:13;7.13;;;1.55;;
26135;SDS011;13889;50.806;4.608;2022-09-09T16:46:41;5.88;;;1.70;;
26135;SDS011;13889;50.806;4.608;2022-09-09T16:49:11;9.57;;;2.40;;
26135;SDS011;13889;50.806;4.608;2022-09-09T16:51:44;9.38;;;2.65;;
26135;SDS011;13889;50.806;4.608;2022-09-09T16:54:14;15.40;;;2.70;;
26135;SDS011;13889;50.806;4.608;2022-09-09T16:56:43;12.68;;;2.78;;
26135;SDS011;13889;50.806;4.608;2022-09-09T16:59:13;9.80;;;2.50;;
26135;SDS011;13889;50.806;4.608;2022-09-09T17:01:44;6.50;;;1.73;;
26135;SDS011;13889;50.806;4.608;2022-09-09T17:04:14;4.72;;;1.90;;
26135;SDS011;13889;50.806;4.608;2022-09-09T17:06:45;5.55;;;1.52;;
26135;SDS011;13889;50.806;4.608;2022-09-09T17:09:12;6.95;;;1.80;;
26135;SDS011;13889;50.806;4.608;2022-09-09T17:11:38;5.53;;;1.65;;
26135;SDS011;13889;50.806;4.608;2022-09-09T17:14:04;4.40;;;1.40;;
26135;SDS011;13889;50.806;4.608;2022-09-09T17:16:31;4.15;;;1.65;;
26135;SDS011;13889;50.806;4.608;2022-09-09T17:19:01;4.95;;;1.80;;
26135;SDS011;13889;50.806;4.608;2022-09-09T17:21:28;4.07;;;1.70;;
26135;SDS011;13889;50.806;4.608;2022-09-09T17:23:55;4.82;;;1.65;;
26135;SDS011;13889;50.806;4.608;2022-09-09T17:26:22;4.53;;;1.20;;
26135;SDS011;13889;50.806;4.608;2022-09-09T17:28:51;4.72;;;1.52;;
26135;SDS011;13889;50.806;4.608;2022-09-09T17:31:17;4.45;;;1.60;;